sensor_id;sensor_type;location;lat;lon;timestamp;pressure;altitude;pressure_sealevel;temperature;humidity
75996;BME280;64681;49.738;9.004;2022-12-18T00:01:05;100762.13;;;-9.98;71.31
75996;BME280;64681;49.738;9.004;2022-12-18T00:03:35;100764.72;;;-9.90;71.02
75996;BME280;64681;49.738;9.004;2022-12-18T00:06:01;100775.78;;;-10.47;73.66
75996;BME280;64681;49.738;9.004;2022-12-18T00:08:28;100780.72;;;-10.62;74.82
75996;BME280;64681;49.738;9.004;2022-12-18T00:10:54;100781.78;;;-10.38;74.22
75996;BME280;64681;49.738;9.004;2022-12-18T00:13:20;100787.78;;;-10.13;72.68
75996;BME280;64681;49.738;9.004;2022-12-18T00:15:45;100781.31;;;-10.17;71.47
75996;BME280;64681;49.738;9.004;2022-12-18T00:18:11;100780.69;;;-10.11;71.27
75996;BME280;64681;49.738;9.004;2022-12-18T00:20:39;100784.41;;;-10.05;72.84
75996;BME280;64681;49.738;9.004;2022-12-18T00:23:06;100778.97;;;-9.86;71.00
75996;BME280;64681;49.738;9.004;2022-12-18T00:25:35;100777.34;;;-9.95;72.22
75996;BME280;64681;49.738;9.004;2022-12-18T00:28:02;100770.88;;;-9.91;71.95
75996;BME280;64681;49.738;9.004;2022-12-18T00:30:28;100775.91;;;-9.81;70.35
75996;BME280;64681;49.738;9.004;2022-12-18T00:32:54;100772.00;;;-9.85;70.72
75996;BME280;64681;49.738;9.004;2022-12-18T00:35:20;100778.28;;;-10.04;72.07
75996;BME280;64681;49.738;9.004;2022-12-18T00:37:45;100776.09;;;-10.42;72.43
75996;BME280;64681;49.738;9.004;2022-12-18T00:40:11;100783.94;;;-10.60;72.95
75996;BME280;64681;49.738;9.004;2022-12-18T00:42:37;100787.59;;;-10.20;72.66
75996;BME280;64681;49.738;9.004;2022-12-18T00:45:27;100796.66;;;-10.07;71.16
75996;BME280;64681;49.738;9.004;2022-12-18T00:47:53;100801.34;;;-10.11;71.57
75996;BME280;64681;49.738;9.004;2022-12-18T00:50:20;100808.50;;;-9.96;71.37
75996;BME280;64681;49.738;9.004;2022-12-18T00:52:46;100798.44;;;-10.16;71.10
75996;BME280;64681;49.738;9.004;2022-12-18T00:55:13;100798.16;;;-10.05;71.38
75996;BME280;64681;49.738;9.004;2022-12-18T00:57:39;100783.16;;;-9.93;71.35
75996;BME280;64681;49.738;9.004;2022-12-18T01:00:07;100792.50;;;-9.92;71.39
75996;BME280;64681;49.738;9.004;2022-12-18T01:02:33;100781.94;;;-10.23;71.32
75996;BME280;64681;49.738;9.004;2022-12-18T01:04:59;100777.41;;;-10.29;71.36
75996;BME280;64681;49.738;9.004;2022-12-18T01:07:24;100773.88;;;-10.28;72.24
75996;BME280;64681;49.738;9.004;2022-12-18T01:09:50;100777.25;;;-10.28;70.94
75996;BME280;64681;49.738;9.004;2022-12-18T01:12:15;100769.66;;;-10.29;71.08
75996;BME280;64681;49.738;9.004;2022-12-18T01:14:41;100777.41;;;-10.29;71.96
75996;BME280;64681;49.738;9.004;2022-12-18T01:17:06;100784.69;;;-10.76;73.84
75996;BME280;64681;49.738;9.004;2022-12-18T01:19:32;100803.03;;;-10.44;72.30
75996;BME280;64681;49.738;9.004;2022-12-18T01:21:58;100791.81;;;-10.70;74.11
75996;BME280;64681;49.738;9.004;2022-12-18T01:24:24;100785.44;;;-10.92;74.67
75996;BME280;64681;49.738;9.004;2022-12-18T01:26:49;100795.81;;;-10.75;74.61
75996;BME280;64681;49.738;9.004;2022-12-18T01:29:15;100795.00;;;-10.33;73.38
75996;BME280;64681;49.738;9.004;2022-12-18T01:31:40;100804.19;;;-10.30;73.96
75996;BME280;64681;49.738;9.004;2022-12-18T01:34:06;100797.63;;;-10.16;71.74
75996;BME280;64681;49.738;9.004;2022-12-18T01:36:34;100800.66;;;-10.29;71.76
75996;BME280;64681;49.738;9.004;2022-12-18T01:39:05;100796.44;;;-10.39;72.32
75996;BME280;64681;49.738;9.004;2022-12-18T01:41:32;100800.00;;;-10.31;71.91
75996;BME280;64681;49.738;9.004;2022-12-18T01:50:00;100784.81;;;-10.86;72.80
75996;BME280;64681;49.738;9.004;2022-12-18T01:52:31;100792.63;;;-10.69;72.65
75996;BME280;64681;49.738;9.004;2022-12-18T01:54:59;100798.22;;;-10.47;72.13
75996;BME280;64681;49.738;9.004;2022-12-18T01:57:27;100808.41;;;-10.38;71.35
75996;BME280;64681;49.738;9.004;2022-12-18T01:59:59;100810.25;;;-10.56;71.57
75996;BME280;64681;49.738;9.004;2022-12-18T02:02:29;100818.13;;;-10.66;72.39
75996;BME280;64681;49.738;9.004;2022-12-18T02:04:55;100821.56;;;-10.49;72.34
75996;BME280;64681;49.738;9.004;2022-12-18T02:13:48;100800.66;;;-10.29;71.35
75996;BME280;64681;49.738;9.004;2022-12-18T02:17:33;100785.53;;;-10.08;70.94
75996;BME280;64681;49.738;9.004;2022-12-18T02:28:00;100769.03;;;-10.74;72.18
75996;BME280;64681;49.738;9.004;2022-12-18T02:30:31;100801.53;;;-10.55;72.27
75996;BME280;64681;49.738;9.004;2022-12-18T02:33:01;100812.38;;;-10.52;72.10
75996;BME280;64681;49.738;9.004;2022-12-18T02:35:30;100809.88;;;-10.70;72.46
75996;BME280;64681;49.738;9.004;2022-12-18T02:37:58;100802.59;;;-11.01;72.41
75996;BME280;64681;49.738;9.004;2022-12-18T02:40:26;100797.94;;;-10.97;72.37
75996;BME280;64681;49.738;9.004;2022-12-18T02:42:53;100786.31;;;-10.75;71.50
75996;BME280;64681;49.738;9.004;2022-12-18T02:45:19;100791.34;;;-10.65;71.75
75996;BME280;64681;49.738;9.004;2022-12-18T02:47:48;100781.66;;;-10.71;71.86
75996;BME280;64681;49.738;9.004;2022-12-18T02:50:36;100789.75;;;-10.92;71.97
75996;BME280;64681;49.738;9.004;2022-12-18T02:53:30;100786.38;;;-10.93;72.89
75996;BME280;64681;49.738;9.004;2022-12-18T02:56:26;100771.44;;;-10.81;72.96
75996;BME280;64681;49.738;9.004;2022-12-18T03:04:07;100778.72;;;-11.29;73.61
75996;BME280;64681;49.738;9.004;2022-12-18T03:06:44;100761.88;;;-11.41;74.43
75996;BME280;64681;49.738;9.004;2022-12-18T03:09:27;100770.19;;;-11.03;72.80
75996;BME280;64681;49.738;9.004;2022-12-18T03:12:02;100772.53;;;-10.57;72.55
75996;BME280;64681;49.738;9.004;2022-12-18T03:14:57;100783.41;;;-10.72;72.01
75996;BME280;64681;49.738;9.004;2022-12-18T03:17:27;100785.72;;;-10.60;70.87
75996;BME280;64681;49.738;9.004;2022-12-18T03:20:00;100778.78;;;-10.94;72.53
75996;BME280;64681;49.738;9.004;2022-12-18T03:22:32;100788.28;;;-10.95;71.99
75996;BME280;64681;49.738;9.004;2022-12-18T03:25:03;100802.78;;;-10.68;70.58
75996;BME280;64681;49.738;9.004;2022-12-18T03:27:32;100805.28;;;-10.84;71.72
75996;BME280;64681;49.738;9.004;2022-12-18T03:30:08;100806.63;;;-10.72;70.95
75996;BME280;64681;49.738;9.004;2022-12-18T03:35:36;100780.03;;;-10.72;70.17
75996;BME280;64681;49.738;9.004;2022-12-18T03:38:03;100788.03;;;-10.84;72.40
75996;BME280;64681;49.738;9.004;2022-12-18T03:40:43;100804.25;;;-10.65;71.57
75996;BME280;64681;49.738;9.004;2022-12-18T03:43:18;100806.47;;;-11.05;71.64
75996;BME280;64681;49.738;9.004;2022-12-18T03:46:52;100805.22;;;-10.92;71.69
75996;BME280;64681;49.738;9.004;2022-12-18T03:48:56;100792.59;;;-10.77;71.89
75996;BME280;64681;49.738;9.004;2022-12-18T03:51:50;100795.72;;;-10.66;71.88
75996;BME280;64681;49.738;9.004;2022-12-18T03:54:19;100784.53;;;-10.74;70.91
75996;BME280;64681;49.738;9.004;2022-12-18T03:56:51;100800.28;;;-10.86;70.73
75996;BME280;64681;49.738;9.004;2022-12-18T03:59:22;100807.06;;;-11.11;72.48
75996;BME280;64681;49.738;9.004;2022-12-18T04:01:52;100786.91;;;-11.34;72.83
75996;BME280;64681;49.738;9.004;2022-12-18T04:04:21;100767.31;;;-11.00;71.22
75996;BME280;64681;49.738;9.004;2022-12-18T04:06:50;100766.59;;;-11.10;72.54
75996;BME280;64681;49.738;9.004;2022-12-18T04:09:19;100766.16;;;-11.06;72.99
75996;BME280;64681;49.738;9.004;2022-12-18T04:11:46;100763.03;;;-11.18;72.71
75996;BME280;64681;49.738;9.004;2022-12-18T04:14:13;100768.28;;;-11.01;71.78
75996;BME280;64681;49.738;9.004;2022-12-18T04:16:39;100754.38;;;-11.35;73.51
75996;BME280;64681;49.738;9.004;2022-12-18T04:19:05;100771.94;;;-11.12;73.34
75996;BME280;64681;49.738;9.004;2022-12-18T04:21:30;100750.28;;;-11.64;73.41
75996;BME280;64681;49.738;9.004;2022-12-18T04:23:56;100766.47;;;-11.53;74.37
75996;BME280;64681;49.738;9.004;2022-12-18T04:26:21;100773.94;;;-11.24;74.44
75996;BME280;64681;49.738;9.004;2022-12-18T04:28:47;100776.34;;;-11.49;73.77
75996;BME280;64681;49.738;9.004;2022-12-18T04:31:13;100772.56;;;-11.10;72.51
75996;BME280;64681;49.738;9.004;2022-12-18T04:33:38;100764.06;;;-11.02;71.59
75996;BME280;64681;49.738;9.004;2022-12-18T04:36:04;100749.81;;;-10.80;70.75
75996;BME280;64681;49.738;9.004;2022-12-18T04:38:30;100764.34;;;-10.79;71.69
75996;BME280;64681;49.738;9.004;2022-12-18T04:40:56;100766.13;;;-10.79;70.65
75996;BME280;64681;49.738;9.004;2022-12-18T04:43:21;100767.13;;;-10.72;72.94
75996;BME280;64681;49.738;9.004;2022-12-18T04:45:47;100769.28;;;-11.20;73.88
75996;BME280;64681;49.738;9.004;2022-12-18T04:48:12;100756.84;;;-11.25;75.09
75996;BME280;64681;49.738;9.004;2022-12-18T04:50:38;100756.38;;;-10.94;73.11
75996;BME280;64681;49.738;9.004;2022-12-18T04:53:03;100750.59;;;-10.88;74.29
75996;BME280;64681;49.738;9.004;2022-12-18T04:55:29;100755.56;;;-11.21;74.02
75996;BME280;64681;49.738;9.004;2022-12-18T04:57:55;100713.19;;;-11.18;72.46
75996;BME280;64681;49.738;9.004;2022-12-18T05:00:20;100745.31;;;-11.13;73.14
75996;BME280;64681;49.738;9.004;2022-12-18T05:02:46;100754.59;;;-10.93;72.88
75996;BME280;64681;49.738;9.004;2022-12-18T05:05:12;100759.78;;;-11.20;73.77
75996;BME280;64681;49.738;9.004;2022-12-18T05:07:38;100749.13;;;-11.25;74.19
75996;BME280;64681;49.738;9.004;2022-12-18T05:10:06;100751.97;;;-11.02;72.99
75996;BME280;64681;49.738;9.004;2022-12-18T05:12:32;100750.81;;;-10.81;71.62
75996;BME280;64681;49.738;9.004;2022-12-18T05:14:58;100760.50;;;-11.09;71.90
75996;BME280;64681;49.738;9.004;2022-12-18T05:17:23;100757.41;;;-11.13;72.62
75996;BME280;64681;49.738;9.004;2022-12-18T05:19:49;100760.13;;;-11.15;72.02
75996;BME280;64681;49.738;9.004;2022-12-18T05:22:17;100752.44;;;-11.06;73.69
75996;BME280;64681;49.738;9.004;2022-12-18T05:24:43;100760.22;;;-11.24;72.51
75996;BME280;64681;49.738;9.004;2022-12-18T05:27:08;100756.53;;;-11.48;73.32
75996;BME280;64681;49.738;9.004;2022-12-18T05:29:34;100764.31;;;-11.40;74.48
75996;BME280;64681;49.738;9.004;2022-12-18T05:31:59;100765.03;;;-11.30;74.61
75996;BME280;64681;49.738;9.004;2022-12-18T05:34:25;100766.72;;;-11.20;73.92
75996;BME280;64681;49.738;9.004;2022-12-18T05:36:50;100767.41;;;-11.36;73.53
75996;BME280;64681;49.738;9.004;2022-12-18T05:39:16;100773.13;;;-11.24;73.12
75996;BME280;64681;49.738;9.004;2022-12-18T05:41:41;100781.31;;;-11.29;73.64
75996;BME280;64681;49.738;9.004;2022-12-18T05:44:07;100786.44;;;-11.11;73.65
75996;BME280;64681;49.738;9.004;2022-12-18T05:46:32;100776.41;;;-10.88;71.48
75996;BME280;64681;49.738;9.004;2022-12-18T05:49:01;100774.44;;;-10.94;72.83
75996;BME280;64681;49.738;9.004;2022-12-18T05:51:27;100769.91;;;-11.26;74.44
75996;BME280;64681;49.738;9.004;2022-12-18T05:53:53;100772.09;;;-11.32;75.22
75996;BME280;64681;49.738;9.004;2022-12-18T05:56:22;100772.44;;;-11.08;73.80
75996;BME280;64681;49.738;9.004;2022-12-18T05:58:52;100772.63;;;-11.02;73.63
75996;BME280;64681;49.738;9.004;2022-12-18T06:01:22;100765.31;;;-11.06;75.37
75996;BME280;64681;49.738;9.004;2022-12-18T06:03:48;100756.16;;;-10.74;73.75
75996;BME280;64681;49.738;9.004;2022-12-18T06:06:15;100756.88;;;-10.90;73.54
75996;BME280;64681;49.738;9.004;2022-12-18T06:08:41;100759.09;;;-10.95;74.37
75996;BME280;64681;49.738;9.004;2022-12-18T06:11:07;100756.50;;;-10.69;73.91
75996;BME280;64681;49.738;9.004;2022-12-18T06:13:32;100753.91;;;-11.04;74.33
75996;BME280;64681;49.738;9.004;2022-12-18T06:15:59;100752.19;;;-10.95;74.05
75996;BME280;64681;49.738;9.004;2022-12-18T06:18:26;100757.19;;;-10.93;73.87
75996;BME280;64681;49.738;9.004;2022-12-18T06:20:59;100758.91;;;-11.02;74.44
75996;BME280;64681;49.738;9.004;2022-12-18T06:23:26;100762.78;;;-10.98;74.17
75996;BME280;64681;49.738;9.004;2022-12-18T06:25:52;100763.72;;;-10.81;73.45
75996;BME280;64681;49.738;9.004;2022-12-18T06:28:18;100769.53;;;-11.05;75.35
75996;BME280;64681;49.738;9.004;2022-12-18T06:30:44;100759.09;;;-10.95;75.22
75996;BME280;64681;49.738;9.004;2022-12-18T06:33:09;100765.00;;;-10.77;74.62
75996;BME280;64681;49.738;9.004;2022-12-18T06:35:35;100771.03;;;-10.60;73.68
75996;BME280;64681;49.738;9.004;2022-12-18T06:38:02;100774.66;;;-10.44;73.22
75996;BME280;64681;49.738;9.004;2022-12-18T06:40:28;100782.38;;;-10.44;74.00
75996;BME280;64681;49.738;9.004;2022-12-18T06:42:54;100766.03;;;-10.61;73.92
75996;BME280;64681;49.738;9.004;2022-12-18T06:45:19;100787.09;;;-10.40;73.36
75996;BME280;64681;49.738;9.004;2022-12-18T06:47:45;100798.69;;;-10.36;74.37
75996;BME280;64681;49.738;9.004;2022-12-18T06:50:11;100800.31;;;-10.26;73.13
75996;BME280;64681;49.738;9.004;2022-12-18T06:52:37;100791.59;;;-10.42;74.89
75996;BME280;64681;49.738;9.004;2022-12-18T06:55:03;100804.81;;;-10.45;74.79
75996;BME280;64681;49.738;9.004;2022-12-18T06:57:28;100805.19;;;-10.23;74.99
75996;BME280;64681;49.738;9.004;2022-12-18T06:59:54;100805.53;;;-10.10;73.29
75996;BME280;64681;49.738;9.004;2022-12-18T07:02:19;100801.84;;;-10.15;73.98
75996;BME280;64681;49.738;9.004;2022-12-18T07:04:45;100808.66;;;-10.49;75.42
75996;BME280;64681;49.738;9.004;2022-12-18T07:07:11;100817.41;;;-10.34;75.67
75996;BME280;64681;49.738;9.004;2022-12-18T07:09:36;100800.81;;;-10.31;73.90
75996;BME280;64681;49.738;9.004;2022-12-18T07:17:05;100812.03;;;-10.06;73.59
75996;BME280;64681;49.738;9.004;2022-12-18T07:19:30;100804.03;;;-10.29;73.37
75996;BME280;64681;49.738;9.004;2022-12-18T07:21:56;100820.97;;;-10.43;74.01
75996;BME280;64681;49.738;9.004;2022-12-18T07:24:22;100812.94;;;-10.23;75.45
75996;BME280;64681;49.738;9.004;2022-12-18T07:26:47;100817.19;;;-10.06;73.36
75996;BME280;64681;49.738;9.004;2022-12-18T07:29:13;100828.34;;;-9.97;74.16
75996;BME280;64681;49.738;9.004;2022-12-18T07:31:39;100835.97;;;-9.79;73.15
75996;BME280;64681;49.738;9.004;2022-12-18T07:34:04;100832.41;;;-9.78;72.47
75996;BME280;64681;49.738;9.004;2022-12-18T07:36:30;100836.63;;;-9.77;73.67
75996;BME280;64681;49.738;9.004;2022-12-18T07:38:55;100841.00;;;-9.77;73.46
75996;BME280;64681;49.738;9.004;2022-12-18T07:41:21;100833.91;;;-9.59;74.16
75996;BME280;64681;49.738;9.004;2022-12-18T07:43:47;100819.69;;;-9.63;73.05
75996;BME280;64681;49.738;9.004;2022-12-18T07:46:14;100826.16;;;-9.50;73.26
75996;BME280;64681;49.738;9.004;2022-12-18T07:48:44;100830.34;;;-9.66;73.52
75996;BME280;64681;49.738;9.004;2022-12-18T07:51:10;100827.44;;;-9.63;73.60
75996;BME280;64681;49.738;9.004;2022-12-18T07:53:39;100832.00;;;-9.40;72.92
75996;BME280;64681;49.738;9.004;2022-12-18T07:56:09;100829.06;;;-9.20;71.78
75996;BME280;64681;49.738;9.004;2022-12-18T07:58:35;100825.69;;;-9.29;73.23
75996;BME280;64681;49.738;9.004;2022-12-18T08:01:06;100848.78;;;-9.11;72.82
75996;BME280;64681;49.738;9.004;2022-12-18T08:03:33;100838.91;;;-9.49;75.55
75996;BME280;64681;49.738;9.004;2022-12-18T08:06:03;100837.31;;;-9.25;74.52
75996;BME280;64681;49.738;9.004;2022-12-18T08:08:30;100843.63;;;-9.19;74.32
75996;BME280;64681;49.738;9.004;2022-12-18T08:10:57;100823.88;;;-9.20;73.30
75996;BME280;64681;49.738;9.004;2022-12-18T08:13:22;100846.81;;;-9.59;75.17
75996;BME280;64681;49.738;9.004;2022-12-18T08:16:00;100846.19;;;-9.11;74.66
75996;BME280;64681;49.738;9.004;2022-12-18T08:18:26;100840.44;;;-8.65;76.12
75996;BME280;64681;49.738;9.004;2022-12-18T08:20:54;100853.88;;;-8.62;77.56
75996;BME280;64681;49.738;9.004;2022-12-18T08:23:20;100847.13;;;-8.00;75.82
75996;BME280;64681;49.738;9.004;2022-12-18T08:25:45;100851.19;;;-7.97;75.63
75996;BME280;64681;49.738;9.004;2022-12-18T08:28:11;100850.25;;;-7.73;74.50
75996;BME280;64681;49.738;9.004;2022-12-18T08:30:37;100850.91;;;-8.11;75.88
75996;BME280;64681;49.738;9.004;2022-12-18T08:33:02;100848.31;;;-8.11;76.73
75996;BME280;64681;49.738;9.004;2022-12-18T08:35:28;100845.53;;;-8.01;75.25
75996;BME280;64681;49.738;9.004;2022-12-18T08:37:54;100849.13;;;-7.79;74.60
75996;BME280;64681;49.738;9.004;2022-12-18T08:40:19;100842.00;;;-7.53;73.94
75996;BME280;64681;49.738;9.004;2022-12-18T08:42:45;100846.53;;;-8.02;75.51
75996;BME280;64681;49.738;9.004;2022-12-18T08:45:29;100849.06;;;-7.93;75.07
75996;BME280;64681;49.738;9.004;2022-12-18T08:47:55;100854.78;;;-7.75;74.71
75996;BME280;64681;49.738;9.004;2022-12-18T08:50:20;100853.53;;;-7.79;74.67
75996;BME280;64681;49.738;9.004;2022-12-18T08:52:46;100849.47;;;-7.35;73.61
75996;BME280;64681;49.738;9.004;2022-12-18T08:55:11;100845.69;;;-7.48;73.63
75996;BME280;64681;49.738;9.004;2022-12-18T08:57:37;100832.88;;;-7.96;75.17
75996;BME280;64681;49.738;9.004;2022-12-18T09:00:03;100838.66;;;-7.62;74.80
75996;BME280;64681;49.738;9.004;2022-12-18T09:02:29;100837.44;;;-7.28;73.89
75996;BME280;64681;49.738;9.004;2022-12-18T09:04:54;100839.13;;;-7.58;73.93
75996;BME280;64681;49.738;9.004;2022-12-18T09:07:20;100832.09;;;-7.73;75.06
75996;BME280;64681;49.738;9.004;2022-12-18T09:09:46;100829.28;;;-7.40;73.77
75996;BME280;64681;49.738;9.004;2022-12-18T09:12:11;100834.16;;;-7.07;72.72
75996;BME280;64681;49.738;9.004;2022-12-18T09:14:37;100834.66;;;-7.50;73.73
75996;BME280;64681;49.738;9.004;2022-12-18T09:17:03;100830.66;;;-7.75;74.99
75996;BME280;64681;49.738;9.004;2022-12-18T09:19:28;100846.44;;;-7.39;73.09
75996;BME280;64681;49.738;9.004;2022-12-18T09:21:54;100846.50;;;-7.47;74.39
75996;BME280;64681;49.738;9.004;2022-12-18T09:24:19;100852.38;;;-7.30;73.44
75996;BME280;64681;49.738;9.004;2022-12-18T09:26:48;100856.88;;;-7.47;74.56
75996;BME280;64681;49.738;9.004;2022-12-18T09:29:15;100853.81;;;-7.27;73.07
75996;BME280;64681;49.738;9.004;2022-12-18T09:31:41;100863.03;;;-7.25;72.86
75996;BME280;64681;49.738;9.004;2022-12-18T09:34:07;100868.34;;;-7.18;73.70
75996;BME280;64681;49.738;9.004;2022-12-18T09:36:33;100874.31;;;-7.64;74.51
75996;BME280;64681;49.738;9.004;2022-12-18T09:38:58;100879.19;;;-7.38;74.58
75996;BME280;64681;49.738;9.004;2022-12-18T09:41:50;100844.53;;;-7.45;74.33
75996;BME280;64681;49.738;9.004;2022-12-18T09:46:58;100862.66;;;-6.98;73.63
75996;BME280;64681;49.738;9.004;2022-12-18T09:49:30;100858.03;;;-7.50;74.94
75996;BME280;64681;49.738;9.004;2022-12-18T09:52:49;100855.38;;;-7.03;74.55
75996;BME280;64681;49.738;9.004;2022-12-18T09:55:32;100853.84;;;-6.59;73.32
75996;BME280;64681;49.738;9.004;2022-12-18T09:58:07;100857.50;;;-6.39;73.70
75996;BME280;64681;49.738;9.004;2022-12-18T10:00:37;100863.59;;;-6.61;72.85
75996;BME280;64681;49.738;9.004;2022-12-18T10:03:09;100853.34;;;-5.81;70.98
75996;BME280;64681;49.738;9.004;2022-12-18T10:11:37;100859.63;;;-5.11;71.49
75996;BME280;64681;49.738;9.004;2022-12-18T10:14:26;100856.81;;;-5.09;68.58
75996;BME280;64681;49.738;9.004;2022-12-18T10:19:34;100844.63;;;-5.30;71.48
75996;BME280;64681;49.738;9.004;2022-12-18T10:25:04;100854.03;;;-4.79;69.33
75996;BME280;64681;49.738;9.004;2022-12-18T10:27:31;100851.59;;;-5.09;70.74
75996;BME280;64681;49.738;9.004;2022-12-18T10:29:57;100848.59;;;-4.84;69.09
75996;BME280;64681;49.738;9.004;2022-12-18T10:32:29;100861.41;;;-4.54;72.55
75996;BME280;64681;49.738;9.004;2022-12-18T10:34:57;100856.84;;;-3.97;68.29
75996;BME280;64681;49.738;9.004;2022-12-18T10:37:25;100859.34;;;-3.48;66.97
75996;BME280;64681;49.738;9.004;2022-12-18T10:42:36;100835.38;;;-3.86;67.18
75996;BME280;64681;49.738;9.004;2022-12-18T10:47:43;100836.22;;;-5.04;70.57
75996;BME280;64681;49.738;9.004;2022-12-18T10:52:54;100843.31;;;-4.56;72.47
75996;BME280;64681;49.738;9.004;2022-12-18T10:55:20;100835.84;;;-3.62;68.38
75996;BME280;64681;49.738;9.004;2022-12-18T10:57:46;100839.03;;;-3.73;68.31
75996;BME280;64681;49.738;9.004;2022-12-18T11:00:25;100843.53;;;-3.27;67.63
75996;BME280;64681;49.738;9.004;2022-12-18T11:02:51;100823.81;;;-3.29;67.81
75996;BME280;64681;49.738;9.004;2022-12-18T11:05:27;100839.69;;;-2.91;67.77
75996;BME280;64681;49.738;9.004;2022-12-18T11:07:54;100833.50;;;-2.31;66.33
75996;BME280;64681;49.738;9.004;2022-12-18T11:10:22;100833.09;;;-2.28;65.64
75996;BME280;64681;49.738;9.004;2022-12-18T11:12:48;100830.84;;;-3.30;65.73
75996;BME280;64681;49.738;9.004;2022-12-18T11:15:21;100825.06;;;-4.63;71.41
75996;BME280;64681;49.738;9.004;2022-12-18T11:17:51;100825.22;;;-3.34;70.22
75996;BME280;64681;49.738;9.004;2022-12-18T11:22:56;100826.88;;;-2.40;66.62
75996;BME280;64681;49.738;9.004;2022-12-18T11:25:22;100816.13;;;-2.77;66.06
75996;BME280;64681;49.738;9.004;2022-12-18T11:27:52;100822.69;;;-4.02;69.54
75996;BME280;64681;49.738;9.004;2022-12-18T11:30:29;100821.59;;;-3.53;71.39
75996;BME280;64681;49.738;9.004;2022-12-18T11:40:51;100797.03;;;-2.78;67.19
75996;BME280;64681;49.738;9.004;2022-12-18T11:43:32;100807.34;;;-3.10;69.05
75996;BME280;64681;49.738;9.004;2022-12-18T11:46:23;100796.06;;;-3.04;68.69
75996;BME280;64681;49.738;9.004;2022-12-18T11:52:00;100805.31;;;-3.55;69.32
75996;BME280;64681;49.738;9.004;2022-12-18T11:54:29;100781.22;;;-3.03;70.97
75996;BME280;64681;49.738;9.004;2022-12-18T11:59:43;100811.50;;;-2.82;69.28
75996;BME280;64681;49.738;9.004;2022-12-18T12:05:37;100804.94;;;-1.36;64.30
75996;BME280;64681;49.738;9.004;2022-12-18T12:13:33;100791.78;;;-2.19;65.85
75996;BME280;64681;49.738;9.004;2022-12-18T12:16:18;100784.59;;;-2.30;69.47
75996;BME280;64681;49.738;9.004;2022-12-18T12:38:27;100785.84;;;-1.18;67.42
75996;BME280;64681;49.738;9.004;2022-12-18T12:41:01;100785.47;;;-2.50;67.63
75996;BME280;64681;49.738;9.004;2022-12-18T12:43:47;100774.19;;;-2.05;68.48
75996;BME280;64681;49.738;9.004;2022-12-18T12:46:18;100782.13;;;-2.77;68.86
75996;BME280;64681;49.738;9.004;2022-12-18T12:51:20;100766.38;;;-0.85;63.83
75996;BME280;64681;49.738;9.004;2022-12-18T12:53:48;100768.25;;;-1.62;66.96
75996;BME280;64681;49.738;9.004;2022-12-18T12:56:18;100751.94;;;-1.13;67.41
75996;BME280;64681;49.738;9.004;2022-12-18T13:01:30;100753.97;;;-1.15;65.28
75996;BME280;64681;49.738;9.004;2022-12-18T13:07:06;100764.63;;;-1.61;65.96
75996;BME280;64681;49.738;9.004;2022-12-18T13:15:46;100750.88;;;-1.31;65.31
75996;BME280;64681;49.738;9.004;2022-12-18T13:30:59;100740.66;;;-0.95;65.88
75996;BME280;64681;49.738;9.004;2022-12-18T13:35:53;100744.91;;;-1.38;65.11
75996;BME280;64681;49.738;9.004;2022-12-18T13:43:48;100737.28;;;-2.29;71.23
75996;BME280;64681;49.738;9.004;2022-12-18T13:49:05;100739.28;;;-1.41;68.17
75996;BME280;64681;49.738;9.004;2022-12-18T13:51:47;100739.50;;;-1.43;69.35
75996;BME280;64681;49.738;9.004;2022-12-18T13:54:31;100741.50;;;-1.20;67.91
75996;BME280;64681;49.738;9.004;2022-12-18T13:56:58;100743.63;;;-1.10;65.90
75996;BME280;64681;49.738;9.004;2022-12-18T13:59:26;100737.59;;;-1.10;66.17
75996;BME280;64681;49.738;9.004;2022-12-18T14:01:58;100734.31;;;-1.06;67.21
75996;BME280;64681;49.738;9.004;2022-12-18T14:04:27;100722.13;;;-2.13;70.32
75996;BME280;64681;49.738;9.004;2022-12-18T14:09:34;100730.25;;;-1.71;68.36
75996;BME280;64681;49.738;9.004;2022-12-18T14:12:01;100726.84;;;-1.71;69.15
75996;BME280;64681;49.738;9.004;2022-12-18T14:14:50;100721.47;;;-1.77;68.16
75996;BME280;64681;49.738;9.004;2022-12-18T14:17:17;100720.38;;;-1.69;68.28
75996;BME280;64681;49.738;9.004;2022-12-18T14:19:45;100724.06;;;-1.51;67.22
75996;BME280;64681;49.738;9.004;2022-12-18T14:22:16;100705.09;;;-1.47;67.30
75996;BME280;64681;49.738;9.004;2022-12-18T14:24:42;100704.34;;;-1.79;68.70
75996;BME280;64681;49.738;9.004;2022-12-18T14:27:21;100709.31;;;-1.71;69.22
75996;BME280;64681;49.738;9.004;2022-12-18T14:29:47;100706.91;;;-1.72;68.77
75996;BME280;64681;49.738;9.004;2022-12-18T14:32:15;100702.66;;;-1.67;68.94
75996;BME280;64681;49.738;9.004;2022-12-18T14:34:46;100698.69;;;-1.76;69.45
75996;BME280;64681;49.738;9.004;2022-12-18T14:37:20;100694.91;;;-1.80;70.18
75996;BME280;64681;49.738;9.004;2022-12-18T14:39:58;100698.34;;;-1.86;71.07
75996;BME280;64681;49.738;9.004;2022-12-18T14:42:28;100701.03;;;-2.18;70.72
75996;BME280;64681;49.738;9.004;2022-12-18T14:47:59;100697.84;;;-2.66;71.43
75996;BME280;64681;49.738;9.004;2022-12-18T14:50:25;100707.31;;;-2.72;73.13
75996;BME280;64681;49.738;9.004;2022-12-18T14:52:51;100709.47;;;-2.62;72.84
75996;BME280;64681;49.738;9.004;2022-12-18T14:55:18;100700.03;;;-3.15;73.20
75996;BME280;64681;49.738;9.004;2022-12-18T14:57:50;100701.09;;;-2.77;72.85
75996;BME280;64681;49.738;9.004;2022-12-18T15:00:22;100714.31;;;-3.31;74.36
75996;BME280;64681;49.738;9.004;2022-12-18T15:02:54;100710.31;;;-3.54;75.43
75996;BME280;64681;49.738;9.004;2022-12-18T15:05:26;100699.03;;;-3.21;73.55
75996;BME280;64681;49.738;9.004;2022-12-18T15:07:56;100700.50;;;-3.52;75.24
75996;BME280;64681;49.738;9.004;2022-12-18T15:10:46;100696.44;;;-3.21;73.85
75996;BME280;64681;49.738;9.004;2022-12-18T15:13:22;100693.44;;;-3.51;74.22
75996;BME280;64681;49.738;9.004;2022-12-18T15:15:49;100689.84;;;-3.70;74.84
75996;BME280;64681;49.738;9.004;2022-12-18T15:18:18;100691.69;;;-3.71;75.67
75996;BME280;64681;49.738;9.004;2022-12-18T15:20:48;100690.88;;;-3.85;76.18